Time;durP1;ratioP1;P1;durP2;ratioP2;P2;SDS_P1;SDS_P2;PMS_P1;PMS_P2;Temp;Humidity;BMP_temperature;BMP_pressure;BME280_temperature;BME280_humidity;BME280_pressure;Samples;Min_cycle;Max_cycle;Signal;HPM_P1;HPM_P2
2023/11/08 00:02:22;;;;;;;24.00;13.00;;;;;;;14.49;49.41;100069.02;108214;1253;60307;-67
2023/11/08 00:04:49;;;;;;;32.60;13.10;;;;;;;14.66;49.11;100063.70;108193;1252;71466;-67
2023/11/08 00:07:15;;;;;;;27.00;13.50;;;;;;;14.61;49.06;100063.98;108134;1252;68962;-67
2023/11/08 00:09:42;;;;;;;25.80;13.10;;;;;;;14.47;49.37;100063.95;108156;1253;72419;-66
2023/11/08 00:12:08;;;;;;;28.50;13.90;;;;;;;14.36;49.53;100075.16;108145;1253;60274;-68
2023/11/08 00:14:35;;;;;;;24.50;12.90;;;;;;;14.24;49.77;100081.83;108157;1252;59973;-67
2023/11/08 00:17:01;;;;;;;23.00;13.00;;;;;;;14.29;49.77;100088.11;108139;1255;59339;-66
2023/11/08 00:19:28;;;;;;;32.00;14.10;;;;;;;14.22;50.10;100087.73;108180;1252;70337;-66
2023/11/08 00:21:58;;;;;;;30.80;14.40;;;;;;;14.24;50.32;100085.01;108169;1254;72732;-67
2023/11/08 00:24:27;;;;;;;29.90;15.30;;;;;;;13.99;51.11;100086.67;108108;1253;60329;-66
2023/11/08 00:26:54;;;;;;;30.30;14.70;;;;;;;13.87;51.74;100090.78;108210;1252;60313;-67
2023/11/08 00:29:22;;;;;;;33.90;15.00;;;;;;;13.78;52.24;100087.36;108209;1253;73815;-67
2023/11/08 00:31:51;;;;;;;39.70;15.40;;;;;;;13.93;52.01;100077.42;108276;1253;70385;-67
2023/11/08 00:34:17;;;;;;;30.90;15.10;;;;;;;14.10;51.65;100069.52;108223;1253;72509;-68
2023/11/08 00:36:44;;;;;;;35.20;15.00;;;;;;;14.15;51.51;100066.41;108172;1252;60915;-67
2023/11/08 00:39:11;;;;;;;32.80;15.60;;;;;;;14.16;51.40;100062.61;108171;1251;60325;-67
2023/11/08 00:41:38;;;;;;;30.10;13.90;;;;;;;14.19;51.39;100062.48;108282;1253;73843;-67
2023/11/08 00:44:06;;;;;;;34.80;15.10;;;;;;;14.15;51.39;100057.42;108211;1252;70311;-67
2023/11/08 00:46:33;;;;;;;26.00;13.20;;;;;;;14.14;51.49;100049.53;108092;1253;72488;-67
2023/11/08 00:49:01;;;;;;;26.70;14.00;;;;;;;14.23;51.27;100039.84;108189;1253;60435;-66
2023/11/08 00:51:28;;;;;;;33.40;14.80;;;;;;;14.42;50.82;100040.20;108210;1253;60332;-67
2023/11/08 00:53:54;;;;;;;34.30;14.50;;;;;;;14.33;50.94;100034.36;108152;1252;73902;-67
2023/11/08 00:56:21;;;;;;;32.90;15.30;;;;;;;13.50;52.55;100039.04;108044;1257;70164;-67
2023/11/08 00:58:47;;;;;;;31.20;14.70;;;;;;;13.37;52.85;100038.31;108142;1253;60451;-66
2023/11/08 01:01:14;;;;;;;27.50;14.40;;;;;;;13.34;52.97;100035.60;108121;1253;62164;-67
2023/11/08 01:03:40;;;;;;;23.70;13.40;;;;;;;13.42;52.79;100039.61;108247;1251;60747;-67
2023/11/08 01:06:07;;;;;;;24.30;13.20;;;;;;;13.48;52.65;100036.33;108234;1255;73556;-67
2023/11/08 01:08:34;;;;;;;32.80;15.10;;;;;;;13.40;52.78;100033.05;108281;1251;70240;-67
2023/11/08 01:11:01;;;;;;;31.30;14.90;;;;;;;13.29;52.93;100032.70;108281;1251;72972;-66
2023/11/08 01:13:28;;;;;;;28.10;14.50;;;;;;;13.09;53.42;100032.38;108296;1251;60847;-67
2023/11/08 01:15:55;;;;;;;32.20;15.70;;;;;;;13.06;53.58;100027.09;108184;1251;59287;-67
2023/11/08 01:18:21;;;;;;;28.50;13.50;;;;;;;13.14;53.48;100023.90;108211;1251;60184;-67
2023/11/08 01:20:48;;;;;;;32.00;15.60;;;;;;;13.13;53.43;100016.68;108186;1251;70202;-67
2023/11/08 01:23:15;;;;;;;33.00;15.10;;;;;;;12.97;53.73;100017.86;108291;1251;60521;-67
2023/11/08 01:25:43;;;;;;;23.90;13.80;;;;;;;12.94;53.84;100011.66;108237;1251;61013;-67
2023/11/08 01:28:11;;;;;;;35.00;16.30;;;;;;;13.09;53.46;100008.41;108294;1251;60475;-65
2023/11/08 01:30:38;;;;;;;31.70;14.50;;;;;;;12.96;53.73;100005.70;108335;1251;73849;-67
2023/11/08 01:33:05;;;;;;;28.90;14.70;;;;;;;12.92;53.94;100013.50;108284;1251;70413;-68
2023/11/08 01:35:32;;;;;;;31.40;15.20;;;;;;;12.50;54.75;100017.96;108211;1251;72650;-67
2023/11/08 01:37:59;;;;;;;38.70;16.40;;;;;;;12.52;55.08;100011.01;108239;1251;60910;-66
2023/11/08 01:40:26;;;;;;;30.60;15.30;;;;;;;12.59;54.73;100000.11;108217;1252;60422;-64
2023/11/08 01:42:53;;;;;;;35.50;16.00;;;;;;;12.59;54.69;100004.14;108282;1251;73864;-66
2023/11/08 01:45:20;;;;;;;29.10;15.70;;;;;;;12.57;54.86;100005.83;108227;1251;69143;-67
2023/11/08 01:47:48;;;;;;;30.10;15.80;;;;;;;12.52;54.89;100012.23;108209;1251;72353;-66
2023/11/08 01:50:15;;;;;;;31.50;15.30;;;;;;;12.62;54.66;100011.25;108254;1256;61348;-66
2023/11/08 01:52:42;;;;;;;34.60;17.00;;;;;;;12.55;54.70;100012.60;108192;1251;60415;-67
2023/11/08 01:55:08;;;;;;;38.00;17.10;;;;;;;12.52;54.53;100010.46;108310;1251;60427;-67
2023/11/08 01:57:35;;;;;;;30.70;16.30;;;;;;;12.54;54.37;100008.09;108242;1251;60313;-67
2023/11/08 02:00:04;;;;;;;32.50;16.60;;;;;;;12.45;54.60;100008.67;108162;1253;72670;-67
2023/11/08 02:02:39;;;;;;;32.20;15.10;;;;;;;12.56;54.32;100009.58;108080;1252;61011;-67
2023/11/08 02:05:07;;;;;;;30.20;14.80;;;;;;;12.45;54.39;100009.21;107888;1252;60262;-67
2023/11/08 02:07:33;;;;;;;33.50;16.10;;;;;;;12.38;54.58;100010.58;108137;1252;72339;-67
2023/11/08 02:10:00;;;;;;;28.00;14.40;;;;;;;12.36;54.63;100010.32;108064;1253;70177;-67
2023/11/08 02:12:28;;;;;;;36.00;17.30;;;;;;;12.48;54.36;100003.44;108074;1253;72466;-68
2023/11/08 02:15:08;;;;;;;35.10;17.40;;;;;;;12.60;54.14;100003.20;108156;1253;61054;-67
2023/11/08 02:17:34;;;;;;;26.00;13.40;;;;;;;12.68;54.09;100005.83;108140;1252;60453;-67
2023/11/08 02:22:27;;;;;;;24.90;15.10;;;;;;;10.63;60.21;100008.59;104696;1291;602744;-67
2023/11/08 02:24:53;;;;;;;32.40;17.80;;;;;;;11.79;56.96;99999.69;107233;1264;59957;-67
2023/11/08 02:27:20;;;;;;;37.20;16.00;;;;;;;11.90;56.66;99993.04;107298;1266;59237;-66
2023/11/08 02:29:47;;;;;;;28.80;13.90;;;;;;;12.00;56.41;99991.41;107306;1264;72268;-67
2023/11/08 02:32:14;;;;;;;28.30;14.70;;;;;;;11.87;56.65;99991.24;107300;1266;70343;-66
2023/11/08 02:34:40;;;;;;;30.00;14.30;;;;;;;11.74;56.94;99988.96;107140;1264;178365;-68
2023/11/08 02:37:07;;;;;;;24.00;13.00;;;;;;;11.71;57.15;99987.19;108023;1254;61025;-66
2023/11/08 02:39:34;;;;;;;29.10;13.60;;;;;;;11.70;57.19;99989.52;107946;1254;60245;-66
2023/11/08 02:42:01;;;;;;;29.70;14.80;;;;;;;11.62;57.41;99990.58;107985;1255;59125;-67
2023/11/08 02:44:27;;;;;;;33.00;16.70;;;;;;;11.56;57.49;99989.08;108011;1254;69979;-68
2023/11/08 02:46:54;;;;;;;28.90;15.00;;;;;;;11.50;57.54;99991.40;107991;1254;59579;-67
2023/11/08 02:49:21;;;;;;;29.10;15.60;;;;;;;11.56;57.30;99993.45;108068;1254;61266;-67
2023/11/08 02:51:48;;;;;;;31.70;16.10;;;;;;;11.50;57.49;100003.55;107998;1254;59991;-67
2023/11/08 02:54:15;;;;;;;27.10;14.40;;;;;;;11.44;57.58;100007.17;107812;1255;72799;-66
2023/11/08 02:56:42;;;;;;;40.80;16.30;;;;;;;11.41;57.81;100006.75;107822;1254;70152;-66
2023/11/08 02:59:09;;;;;;;42.50;17.60;;;;;;;11.60;57.32;100000.34;108018;1254;72445;-67
2023/11/08 03:01:37;;;;;;;35.50;16.80;;;;;;;11.64;57.12;99994.15;108002;1256;61073;-67
2023/11/08 03:04:04;;;;;;;38.90;17.30;;;;;;;11.56;57.35;99987.48;107995;1256;59485;-67
2023/11/08 03:06:33;;;;;;;35.90;16.40;;;;;;;11.61;57.27;99985.33;107975;1256;72913;-67
2023/11/08 03:09:00;;;;;;;31.00;15.90;;;;;;;11.58;57.45;99983.53;107948;1256;70370;-67
2023/11/08 03:11:26;;;;;;;32.10;16.20;;;;;;;11.58;57.51;99988.11;107974;1255;59493;-66
2023/11/08 03:13:54;;;;;;;38.40;16.60;;;;;;;11.65;57.54;99990.98;107948;1255;59616;-66
2023/11/08 03:16:21;;;;;;;37.00;17.50;;;;;;;11.68;57.38;99989.42;107912;1256;60144;-67
2023/11/08 03:18:48;;;;;;;34.70;16.50;;;;;;;11.76;57.14;99982.20;107974;1255;73049;-66
2023/11/08 03:21:15;;;;;;;35.60;15.90;;;;;;;11.85;57.00;99972.14;108001;1256;70292;-66
2023/11/08 03:23:41;;;;;;;34.70;15.90;;;;;;;11.81;57.03;99961.79;107929;1260;72963;-67
2023/11/08 03:26:08;;;;;;;33.00;16.80;;;;;;;11.92;56.73;99957.42;107973;1255;61136;-67
2023/11/08 03:28:35;;;;;;;35.30;17.10;;;;;;;11.84;56.91;99951.77;107957;1257;61022;-68
2023/11/08 03:31:01;;;;;;;35.20;16.30;;;;;;;11.63;57.55;99957.10;107971;1256;73463;-66
2023/11/08 03:33:30;;;;;;;31.60;17.10;;;;;;;11.72;57.65;99960.95;107948;1256;70344;-66
2023/11/08 03:35:56;;;;;;;35.80;18.20;;;;;;;11.74;57.63;99955.73;107993;1256;71242;-66
2023/11/08 03:38:23;;;;;;;33.80;16.70;;;;;;;11.74;57.75;99964.03;107990;1258;59647;-68
2023/11/08 03:40:49;;;;;;;34.90;16.60;;;;;;;11.74;57.94;99955.21;107972;1255;59166;-67
2023/11/08 03:43:18;;;;;;;37.00;18.40;;;;;;;11.88;57.72;99950.89;107907;1255;59503;-67
2023/11/08 03:45:44;;;;;;;33.40;17.70;;;;;;;12.10;57.14;99943.95;107970;1256;69050;-68
2023/11/08 03:48:10;;;;;;;35.90;18.30;;;;;;;12.19;56.78;99940.19;107959;1255;59689;-67
2023/11/08 03:50:40;;;;;;;32.00;16.10;;;;;;;12.48;56.15;99941.79;107930;1256;59530;-68
2023/11/08 03:53:07;;;;;;;30.60;15.00;;;;;;;12.30;56.60;99940.90;107959;1255;60096;-67
2023/11/08 03:55:35;;;;;;;37.00;17.60;;;;;;;12.10;57.15;99936.54;107897;1256;70736;-66
2023/11/08 03:58:02;;;;;;;27.30;14.80;;;;;;;12.03;57.59;99941.81;107962;1256;70307;-66
2023/11/08 04:00:29;;;;;;;32.80;18.10;;;;;;;12.07;57.57;99940.02;107978;1256;72754;-67
2023/11/08 04:02:57;;;;;;;33.20;17.30;;;;;;;12.19;57.39;99936.67;107963;1256;61172;-65
2023/11/08 04:05:29;;;;;;;37.30;17.60;;;;;;;12.09;57.76;99931.15;107745;1256;60347;-67
2023/11/08 04:07:59;;;;;;;38.50;19.10;;;;;;;12.01;57.96;99933.81;107920;1256;73066;-68
2023/11/08 04:10:26;;;;;;;38.10;18.00;;;;;;;12.03;57.91;99935.82;107931;1256;70221;-66
2023/11/08 04:12:52;;;;;;;38.00;18.80;;;;;;;12.05;57.94;99935.90;107925;1256;72430;-67
2023/11/08 04:15:19;;;;;;;39.70;18.70;;;;;;;12.09;57.92;99930.63;107907;1255;61035;-65
2023/11/08 04:17:46;;;;;;;30.70;14.40;;;;;;;12.17;57.82;99917.92;107972;1255;60256;-67
2023/11/08 04:20:12;;;;;;;34.80;16.80;;;;;;;12.25;57.65;99920.87;107969;1255;73112;-67
2023/11/08 04:22:42;;;;;;;36.60;18.10;;;;;;;12.30;57.48;99915.18;107959;1256;70257;-67
2023/11/08 04:25:10;;;;;;;34.80;17.90;;;;;;;12.22;57.66;99903.96;107779;1256;72641;-66
2023/11/08 04:27:37;;;;;;;36.40;17.70;;;;;;;12.24;57.49;99900.36;108021;1256;60965;-66
2023/11/08 04:30:06;;;;;;;33.80;18.70;;;;;;;12.21;57.57;99892.77;107946;1258;60089;-66
2023/11/08 04:32:33;;;;;;;45.40;18.50;;;;;;;12.11;57.76;99892.52;108017;1256;72976;-66
2023/11/08 04:34:59;;;;;;;34.10;18.10;;;;;;;12.13;57.80;99897.54;107953;1256;59490;-66
2023/11/08 04:37:26;;;;;;;30.40;16.30;;;;;;;12.10;57.86;99903.65;107923;1256;59424;-67
2023/11/08 04:39:52;;;;;;;43.50;20.30;;;;;;;12.21;57.76;99907.70;107911;1256;60882;-65
2023/11/08 04:42:19;;;;;;;32.80;16.50;;;;;;;12.14;57.90;99909.80;107955;1256;60189;-66
2023/11/08 04:44:47;;;;;;;40.20;19.40;;;;;;;12.09;58.28;99905.27;108120;1253;73010;-67
2023/11/08 04:47:18;;;;;;;37.40;18.50;;;;;;;12.12;58.49;99910.94;108141;1253;68968;-67
2023/11/08 04:49:47;;;;;;;43.20;22.40;;;;;;;11.94;59.83;99911.08;108137;1253;71223;-66
2023/11/08 04:52:15;;;;;;;48.80;21.30;;;;;;;11.94;61.29;99912.27;108223;1253;59593;-66
2023/11/08 04:54:44;;;;;;;43.40;20.80;;;;;;;12.15;61.50;99916.79;108155;1253;60175;-67
2023/11/08 04:57:20;;;;;;;36.60;19.70;;;;;;;12.24;61.32;99922.34;108179;1253;72409;-67
2023/11/08 04:59:48;;;;;;;40.30;20.90;;;;;;;12.50;60.73;99915.46;108174;1253;69221;-67
2023/11/08 05:02:15;;;;;;;37.20;19.10;;;;;;;12.60;60.46;99913.23;108093;1253;72664;-67
2023/11/08 05:04:45;;;;;;;43.70;21.70;;;;;;;12.79;59.90;99914.77;108106;1253;59705;-67
2023/11/08 05:07:12;;;;;;;41.80;21.30;;;;;;;12.75;59.88;99910.72;108120;1253;60295;-67
2023/11/08 05:09:43;;;;;;;38.40;17.90;;;;;;;12.81;59.74;99909.73;108099;1253;71663;-67
2023/11/08 05:12:10;;;;;;;43.70;20.80;;;;;;;12.89;59.52;99913.94;108093;1253;70097;-67
2023/11/08 05:14:36;;;;;;;37.90;18.40;;;;;;;13.02;59.15;99914.14;108105;1253;72994;-67
2023/11/08 05:17:04;;;;;;;37.20;18.70;;;;;;;13.14;58.95;99918.10;108050;1256;59524;-67
2023/11/08 05:19:30;;;;;;;44.80;21.40;;;;;;;13.18;58.62;99922.13;108085;1253;60291;-67
2023/11/08 05:21:57;;;;;;;36.00;18.90;;;;;;;13.23;58.38;99915.71;108125;1255;73509;-66
2023/11/08 05:24:24;;;;;;;36.00;20.00;;;;;;;13.20;58.64;99916.57;108028;1253;69083;-67
2023/11/08 05:26:50;;;;;;;36.50;17.90;;;;;;;13.27;58.27;99907.62;108085;1253;59393;-68
2023/11/08 05:29:18;;;;;;;35.30;18.20;;;;;;;13.31;58.03;99893.46;108130;1253;60967;-68
2023/11/08 05:31:45;;;;;;;33.70;16.80;;;;;;;13.28;58.20;99881.10;108130;1253;60127;-67
2023/11/08 05:34:12;;;;;;;30.20;16.00;;;;;;;13.31;58.19;99880.09;108137;1253;71569;-67
2023/11/08 05:36:38;;;;;;;40.80;19.60;;;;;;;13.41;57.97;99881.11;108123;1253;69979;-69
2023/11/08 05:39:05;;;;;;;43.10;18.50;;;;;;;13.62;57.42;99878.79;108148;1253;72798;-67
2023/11/08 05:41:32;;;;;;;30.10;15.00;;;;;;;13.82;56.92;99873.80;108160;1253;61213;-68
2023/11/08 05:43:59;;;;;;;37.90;17.90;;;;;;;13.81;57.01;99877.05;108080;1253;59135;-67
2023/11/08 05:46:25;;;;;;;35.30;16.70;;;;;;;13.84;56.97;99877.62;108145;1253;72872;-66
2023/11/08 05:48:52;;;;;;;33.30;17.50;;;;;;;13.92;56.94;99882.10;108100;1253;70310;-68
2023/11/08 05:51:20;;;;;;;37.60;19.80;;;;;;;14.10;56.53;99891.70;108083;1253;72609;-67
2023/11/08 05:53:46;;;;;;;37.20;16.90;;;;;;;14.13;56.25;99891.73;108063;1253;59878;-68
2023/11/08 05:56:13;;;;;;;35.80;18.10;;;;;;;14.10;56.28;99886.24;108108;1253;60403;-66
2023/11/08 05:58:40;;;;;;;28.50;16.10;;;;;;;14.20;55.98;99887.09;108094;1253;70661;-68
2023/11/08 06:01:06;;;;;;;37.20;18.10;;;;;;;14.26;55.85;99895.92;108101;1253;70484;-66
2023/11/08 06:03:33;;;;;;;36.80;18.50;;;;;;;14.34;55.75;99899.02;108098;1253;59529;-68
2023/11/08 06:06:00;;;;;;;29.30;16.40;;;;;;;14.38;55.68;99893.84;108017;1257;61195;-67
2023/11/08 06:08:26;;;;;;;36.00;19.00;;;;;;;14.30;55.90;99886.36;108091;1253;60073;-67
2023/11/08 06:10:53;;;;;;;33.70;19.30;;;;;;;14.34;55.91;99888.95;108104;1256;59485;-66
2023/11/08 06:13:19;;;;;;;38.50;19.30;;;;;;;14.38;55.88;99899.89;108064;1253;59609;-67
2023/11/08 06:15:46;;;;;;;44.10;21.50;;;;;;;14.32;55.89;99894.20;108101;1253;59728;-67
2023/11/08 06:18:12;;;;;;;32.80;18.10;;;;;;;14.71;55.10;99893.03;108087;1253;61021;-64
2023/11/08 06:20:39;;;;;;;38.90;18.10;;;;;;;14.33;56.03;99887.26;108114;1253;60372;-67
2023/11/08 06:23:06;;;;;;;40.50;19.80;;;;;;;13.71;57.92;99883.23;108095;1253;73098;-68
2023/11/08 06:25:33;;;;;;;33.40;17.10;;;;;;;14.13;57.13;99879.56;108084;1253;70139;-67
2023/11/08 06:28:00;;;;;;;48.80;22.40;;;;;;;14.46;56.50;99875.38;108090;1253;73121;-68
2023/11/08 06:30:26;;;;;;;38.10;20.20;;;;;;;14.41;56.36;99874.98;108077;1253;60393;-67
2023/11/08 06:32:54;;;;;;;40.00;21.30;;;;;;;14.27;56.87;99868.69;108098;1253;60416;-66
2023/11/08 06:35:21;;;;;;;45.70;23.40;;;;;;;14.41;56.71;99867.92;108087;1253;71548;-67
2023/11/08 06:37:48;;;;;;;42.00;19.90;;;;;;;14.45;56.72;99870.13;107937;1253;70074;-67
2023/11/08 06:40:14;;;;;;;49.90;24.20;;;;;;;14.42;56.91;99867.98;108006;1253;72534;-67
2023/11/08 06:42:41;;;;;;;52.90;23.60;;;;;;;14.49;56.84;99867.45;108057;1253;61134;-67
2023/11/08 06:45:08;;;;;;;42.40;21.00;;;;;;;14.56;56.93;99866.74;108083;1253;60402;-67
2023/11/08 06:47:35;;;;;;;58.90;24.90;;;;;;;14.57;57.03;99865.78;108049;1256;73635;-67
2023/11/08 06:50:02;;;;;;;57.10;27.70;;;;;;;14.67;56.85;99856.20;108055;1253;70071;-68
2023/11/08 06:52:29;;;;;;;65.00;27.00;;;;;;;14.68;56.82;99849.05;108133;1253;72584;-67
2023/11/08 06:54:55;;;;;;;55.90;25.30;;;;;;;14.65;57.07;99848.73;108097;1253;60476;-67
2023/11/08 06:57:22;;;;;;;49.00;23.90;;;;;;;14.63;57.09;99846.04;107975;1253;60345;-67
2023/11/08 06:59:49;;;;;;;55.90;26.60;;;;;;;14.73;57.02;99838.34;108080;1253;73896;-67
2023/11/08 07:02:15;;;;;;;61.70;27.20;;;;;;;14.79;57.03;99833.57;108094;1253;70397;-67
2023/11/08 07:04:42;;;;;;;58.00;29.40;;;;;;;14.27;58.26;99824.71;108079;1253;72756;-67
2023/11/08 07:07:11;;;;;;;66.30;29.10;;;;;;;13.99;59.20;99817.65;108057;1253;61031;-67
2023/11/08 07:09:38;;;;;;;61.10;27.00;;;;;;;14.26;58.97;99812.23;108071;1253;60457;-67
2023/11/08 07:12:05;;;;;;;59.10;27.50;;;;;;;14.63;58.11;99805.21;108109;1253;73865;-67
2023/11/08 07:14:31;;;;;;;53.70;27.10;;;;;;;14.76;57.88;99803.38;108076;1253;70150;-67
2023/11/08 07:16:58;;;;;;;47.50;23.60;;;;;;;14.76;58.04;99803.90;108069;1257;71070;-67
2023/11/08 07:19:25;;;;;;;57.30;24.50;;;;;;;14.81;58.01;99801.64;108068;1253;60240;-67
2023/11/08 07:21:52;;;;;;;45.40;22.20;;;;;;;14.93;57.82;99790.49;108005;1253;60409;-68
2023/11/08 07:24:27;;;;;;;46.70;23.10;;;;;;;14.95;57.86;99790.75;108234;1253;73814;-68
2023/11/08 07:26:59;;;;;;;44.80;22.50;;;;;;;14.83;58.30;99784.74;108088;1253;69225;-67
2023/11/08 07:29:25;;;;;;;63.50;26.60;;;;;;;14.94;58.15;99789.90;108129;1253;72394;-67
2023/11/08 07:31:52;;;;;;;55.00;24.40;;;;;;;14.96;58.11;99795.09;108151;1253;60268;-68
2023/11/08 07:34:21;;;;;;;38.90;19.20;;;;;;;14.87;58.46;99798.95;108115;1252;60344;-66
2023/11/08 07:36:51;;;;;;;32.80;17.90;;;;;;;14.71;58.92;99794.48;108164;1253;72945;-68
2023/11/08 07:39:17;;;;;;;43.00;19.40;;;;;;;14.70;58.67;99788.55;108242;1253;71764;-67
2023/11/08 07:41:54;;;;;;;36.00;17.90;;;;;;;14.76;58.42;99786.89;108155;1253;72799;-68
2023/11/08 07:44:20;;;;;;;36.60;18.50;;;;;;;14.91;58.17;99785.50;108125;1253;60424;-68
2023/11/08 07:46:47;;;;;;;35.80;18.40;;;;;;;15.04;58.02;99789.13;108157;1253;60299;-67
2023/11/08 07:49:17;;;;;;;37.10;20.60;;;;;;;14.84;58.23;99790.36;108121;1253;73929;-68
2023/11/08 07:51:45;;;;;;;33.20;17.80;;;;;;;14.96;57.70;99782.02;108150;1253;70378;-67
2023/11/08 07:54:11;;;;;;;30.60;16.80;;;;;;;14.95;57.80;99775.73;108094;1253;72188;-67
2023/11/08 07:56:38;;;;;;;36.00;17.70;;;;;;;15.16;57.35;99766.13;108153;1253;60454;-67
2023/11/08 07:59:05;;;;;;;40.10;20.30;;;;;;;15.22;57.37;99756.70;108138;1254;61378;-67
2023/11/08 08:01:32;;;;;;;44.20;20.30;;;;;;;15.30;57.28;99750.41;108164;1253;74697;-67
2023/11/08 08:04:00;;;;;;;44.30;21.20;;;;;;;15.21;57.61;99743.19;108202;1253;70339;-67
2023/11/08 08:06:27;;;;;;;41.10;19.90;;;;;;;15.30;57.47;99741.05;108152;1256;73670;-68
2023/11/08 08:08:55;;;;;;;49.30;20.60;;;;;;;15.43;57.11;99740.73;108140;1253;61227;-67
2023/11/08 08:11:22;;;;;;;58.70;20.60;;;;;;;15.50;57.00;99739.78;108180;1253;60385;-68
2023/11/08 08:13:48;;;;;;;46.80;21.70;;;;;;;15.43;57.04;99734.39;108167;1253;73763;-68
2023/11/08 08:16:19;;;;;;;41.50;20.70;;;;;;;15.40;57.04;99729.05;108165;1253;68950;-68
2023/11/08 08:18:47;;;;;;;39.10;19.00;;;;;;;15.46;56.86;99730.65;108120;1253;71634;-68
2023/11/08 08:21:13;;;;;;;43.20;21.00;;;;;;;15.35;57.19;99725.68;108108;1253;60417;-68
2023/11/08 08:23:40;;;;;;;37.10;18.70;;;;;;;15.35;57.15;99726.73;108175;1253;60501;-68
2023/11/08 08:26:12;;;;;;;34.40;18.30;;;;;;;15.43;57.00;99725.54;108159;1253;73817;-68
2023/11/08 08:28:40;;;;;;;33.30;19.20;;;;;;;15.48;56.79;99721.30;108189;1253;70397;-68
2023/11/08 08:31:07;;;;;;;40.50;20.10;;;;;;;15.41;56.76;99719.27;108080;1253;74009;-68
2023/11/08 08:33:33;;;;;;;36.80;20.10;;;;;;;15.36;57.09;99710.23;108151;1253;60418;-68
2023/11/08 08:36:00;;;;;;;39.30;19.20;;;;;;;15.40;57.04;99701.33;108180;1253;61094;-68
2023/11/08 08:38:27;;;;;;;50.50;18.70;;;;;;;15.37;57.11;99697.81;108162;1252;74126;-68
2023/11/08 08:40:54;;;;;;;51.30;23.80;;;;;;;15.40;57.09;99696.03;108181;1253;71390;-68
2023/11/08 08:43:21;;;;;;;56.20;24.70;;;;;;;15.38;57.13;99692.75;107977;1253;72758;-68
2023/11/08 08:45:48;;;;;;;34.10;20.20;;;;;;;15.41;57.25;99690.13;108116;1253;61110;-67
2023/11/08 08:48:15;;;;;;;42.60;22.50;;;;;;;15.33;57.35;99688.78;108139;1253;60429;-67
2023/11/08 08:50:42;;;;;;;39.40;21.10;;;;;;;15.36;57.26;99686.57;108122;1253;74398;-67
2023/11/08 08:53:08;;;;;;;44.40;22.30;;;;;;;15.36;57.22;99688.65;108140;1253;69007;-67
2023/11/08 08:55:38;;;;;;;31.90;20.00;;;;;;;15.53;56.74;99693.59;108174;1253;70472;-68
2023/11/08 08:58:08;;;;;;;46.10;24.50;;;;;;;15.56;56.67;99692.30;108001;1253;60995;-67
2023/11/08 09:00:35;;;;;;;39.90;23.40;;;;;;;15.59;56.66;99691.05;108172;1253;60486;-67
2023/11/08 09:03:03;;;;;;;39.60;23.30;;;;;;;15.61;56.68;99677.64;108168;1253;74226;-67
2023/11/08 09:05:30;;;;;;;37.10;20.10;;;;;;;15.71;56.40;99675.58;108181;1253;69387;-67
2023/11/08 09:07:57;;;;;;;47.20;27.40;;;;;;;15.62;56.64;99679.20;108107;1253;72680;-67
2023/11/08 09:10:24;;;;;;;46.80;28.20;;;;;;;15.39;57.22;99678.70;108127;1253;60034;-67
2023/11/08 09:12:51;;;;;;;45.40;26.80;;;;;;;15.37;57.31;99669.65;108183;1256;59667;-67
2023/11/08 09:15:18;;;;;;;51.50;27.20;;;;;;;15.32;57.34;99664.11;108184;1253;72410;-67
2023/11/08 09:17:44;;;;;;;42.20;23.90;;;;;;;15.29;57.38;99655.27;108154;1253;69918;-68
2023/11/08 09:20:11;;;;;;;51.60;28.50;;;;;;;15.33;57.29;99641.98;108172;1252;73005;-67
2023/11/08 09:22:40;;;;;;;41.10;25.70;;;;;;;15.30;57.45;99634.23;108108;1253;60280;-67
2023/11/08 09:25:09;;;;;;;48.70;26.80;;;;;;;15.03;58.06;99627.44;108158;1253;60358;-67
2023/11/08 09:27:36;;;;;;;56.20;31.70;;;;;;;15.08;58.22;99623.06;108172;1253;73883;-67
2023/11/08 09:30:04;;;;;;;56.20;31.80;;;;;;;15.11;58.33;99626.03;108116;1253;69105;-68
2023/11/08 09:32:31;;;;;;;55.30;32.50;;;;;;;15.15;58.30;99624.41;108187;1253;73857;-67
2023/11/08 09:34:58;;;;;;;64.90;35.50;;;;;;;15.05;58.55;99625.91;108112;1256;60425;-66
2023/11/08 09:37:25;;;;;;;81.30;39.90;;;;;;;14.99;58.89;99617.63;108151;1256;59443;-67
2023/11/08 09:39:54;;;;;;;77.20;39.60;;;;;;;14.96;59.04;99617.30;108176;1253;74009;-67
2023/11/08 09:42:23;;;;;;;69.20;35.60;;;;;;;15.05;58.78;99614.20;108154;1253;70450;-67
2023/11/08 09:44:50;;;;;;;76.30;38.60;;;;;;;15.05;58.86;99606.84;108065;1253;71377;-67
2023/11/08 09:47:16;;;;;;;63.80;33.40;;;;;;;15.07;58.88;99599.60;108155;1254;60472;-67
2023/11/08 09:49:50;;;;;;;59.40;29.10;;;;;;;15.11;58.77;99585.89;108058;1253;60311;-68
2023/11/08 09:52:18;;;;;;;67.10;34.40;;;;;;;15.00;59.17;99581.14;108155;1252;72827;-67
2023/11/08 09:54:45;;;;;;;65.50;34.50;;;;;;;14.95;59.47;99571.05;108107;1253;70657;-68
2023/11/08 09:57:12;;;;;;;68.30;34.40;;;;;;;14.96;59.71;99560.91;108141;1253;70541;-68
2023/11/08 09:59:39;;;;;;;70.00;37.90;;;;;;;14.95;60.00;99553.02;108169;1253;60314;-68
2023/11/08 10:02:08;;;;;;;76.50;39.10;;;;;;;15.01;59.93;99549.98;107981;1252;60394;-68
2023/11/08 10:04:35;;;;;;;73.50;40.10;;;;;;;15.05;60.06;99550.60;108197;1253;73917;-67
2023/11/08 10:07:12;;;;;;;62.90;36.60;;;;;;;14.82;60.65;99558.43;108150;1253;70383;-68
2023/11/08 10:09:39;;;;;;;64.60;35.60;;;;;;;14.84;60.55;99560.27;108157;1253;71491;-68
2023/11/08 10:12:08;;;;;;;64.80;37.10;;;;;;;14.90;60.41;99559.15;108170;1253;60463;-68
2023/11/08 10:14:44;;;;;;;57.60;32.80;;;;;;;14.83;60.55;99554.83;108007;1253;60237;-67
2023/11/08 10:17:10;;;;;;;64.70;34.20;;;;;;;14.93;60.58;99550.98;108179;1253;73766;-67
2023/11/08 10:19:57;;;;;;;70.50;34.20;;;;;;;15.34;59.60;99546.02;108063;1253;69483;-67
2023/11/08 10:22:26;;;;;;;55.50;29.20;;;;;;;15.63;58.70;99540.77;108194;1252;72702;-67
2023/11/08 10:24:57;;;;;;;52.00;29.80;;;;;;;15.76;58.34;99540.83;107987;1252;60377;-67
2023/11/08 10:27:24;;;;;;;54.80;30.70;;;;;;;15.53;59.03;99547.80;108145;1253;60026;-67
2023/11/08 10:29:51;;;;;;;47.40;27.80;;;;;;;15.33;59.59;99548.95;108155;1253;73800;-67
2023/11/08 10:32:19;;;;;;;52.90;29.40;;;;;;;15.39;59.54;99547.69;108138;1253;70478;-67
2023/11/08 10:34:47;;;;;;;52.70;28.90;;;;;;;15.40;59.53;99544.80;108163;1253;71526;-67
2023/11/08 10:37:24;;;;;;;42.60;26.80;;;;;;;15.45;59.42;99547.45;108143;1257;61032;-67
2023/11/08 10:39:56;;;;;;;49.60;28.20;;;;;;;15.45;59.41;99541.58;108113;1253;60189;-67
2023/11/08 10:42:26;;;;;;;40.40;26.40;;;;;;;15.58;59.16;99536.67;108037;1253;73378;-68
2023/11/08 10:45:06;;;;;;;45.50;27.80;;;;;;;15.52;59.33;99533.72;108196;1253;69207;-68
2023/11/08 10:47:34;;;;;;;48.20;28.50;;;;;;;15.58;59.14;99527.25;108112;1253;73019;-66
2023/11/08 10:50:00;;;;;;;43.90;26.10;;;;;;;15.57;59.25;99526.13;108119;1253;60307;-67
2023/11/08 10:52:27;;;;;;;47.30;24.70;;;;;;;15.62;59.11;99519.73;107999;1253;60200;-67
2023/11/08 10:54:54;;;;;;;45.70;25.40;;;;;;;15.80;58.81;99520.32;107987;1253;73918;-67
2023/11/08 10:57:21;;;;;;;34.90;20.80;;;;;;;15.69;59.10;99517.85;108135;1253;69087;-66
2023/11/08 10:59:50;;;;;;;43.60;23.60;;;;;;;15.69;59.29;99511.48;108009;1253;70852;-67
2023/11/08 11:02:27;;;;;;;37.20;23.10;;;;;;;15.60;59.41;99512.13;108063;1253;61273;-67
2023/11/08 11:04:58;;;;;;;43.90;24.70;;;;;;;15.54;59.77;99503.65;108096;1256;61884;-67
2023/11/08 11:07:25;;;;;;;37.90;22.80;;;;;;;15.48;59.92;99498.80;108085;1253;73734;-67
2023/11/08 11:09:55;;;;;;;34.50;21.40;;;;;;;15.61;59.47;99501.08;108152;1253;71647;-66
2023/11/08 11:12:40;;;;;;;33.90;21.70;;;;;;;15.58;59.41;99492.76;108025;1252;71573;-67